Time;durP1;ratioP1;P1;durP2;ratioP2;P2;SDS_P1;SDS_P2;PMS_P1;PMS_P2;Temp;Humidity;BMP_temperature;BMP_pressure;BME280_temperature;BME280_humidity;BME280_pressure;Samples;Min_cycle;Max_cycle;Signal;HPM_P1;HPM_P2
2022/04/25 00:00:22;;;;;;;14.00;8.02;;;;;;;6.00;86.43;101009.97;2080046;28;46000;-68
2022/04/25 00:01:25;;;;;;;16.77;8.40;;;;;;;6.00;86.91;101018.81;2079628;28;41529;-69
2022/04/25 00:02:27;;;;;;;13.55;8.40;;;;;;;6.01;86.69;101011.72;2079992;28;33446;-69
2022/04/25 00:03:29;;;;;;;14.40;8.20;;;;;;;6.00;86.65;101010.84;2081231;28;20042;-69
2022/04/25 00:04:31;;;;;;;14.73;8.30;;;;;;;6.01;85.95;101014.38;2080255;28;45256;-68
2022/04/25 00:05:33;;;;;;;14.82;8.07;;;;;;;6.02;86.45;101017.03;2080007;28;45009;-68
2022/04/25 00:06:35;;;;;;;14.73;8.38;;;;;;;6.01;85.80;101017.94;2079670;28;44305;-69
2022/04/25 00:07:37;;;;;;;14.80;9.10;;;;;;;6.01;86.22;101004.66;2079530;28;42727;-69
2022/04/25 00:08:39;;;;;;;16.05;8.38;;;;;;;6.03;86.83;101016.16;2087691;28;31197;-68
2022/04/25 00:09:40;;;;;;;18.55;9.05;;;;;;;6.03;85.89;101015.25;2079937;28;44972;-69
2022/04/25 00:10:42;;;;;;;18.58;8.30;;;;;;;6.03;85.94;101010.84;2079356;28;44954;-69
2022/04/25 00:11:44;;;;;;;17.40;8.20;;;;;;;6.04;87.04;101012.59;2079915;28;44508;-68
2022/04/25 00:12:46;;;;;;;16.05;8.63;;;;;;;6.06;86.89;101015.25;2079669;28;44279;-69
2022/04/25 00:13:47;;;;;;;15.77;8.20;;;;;;;6.07;86.50;101023.22;2079589;28;45744;-69
2022/04/25 00:14:49;;;;;;;15.23;8.77;;;;;;;6.08;85.62;101018.78;2081002;28;20035;-69
2022/04/25 00:15:52;;;;;;;16.25;7.93;;;;;;;6.07;85.63;101028.53;2079821;28;43988;-69
2022/04/25 00:16:56;;;;;;;14.05;7.90;;;;;;;6.08;86.54;101017.03;2079581;28;45548;-69
2022/04/25 00:17:58;;;;;;;15.82;8.40;;;;;;;6.09;85.70;101016.13;2079816;28;44187;-69
2022/04/25 00:19:00;;;;;;;13.25;7.30;;;;;;;6.09;86.54;101012.59;2080713;28;27527;-69
2022/04/25 00:20:02;;;;;;;18.40;8.80;;;;;;;6.10;85.62;101017.00;2079493;28;42728;-69
2022/04/25 00:21:03;;;;;;;13.80;7.88;;;;;;;6.10;86.36;101011.69;2079999;28;47189;-66
2022/04/25 00:22:05;;;;;;;16.20;8.60;;;;;;;6.11;86.43;101013.47;2080556;28;28741;-69
2022/04/25 00:23:07;;;;;;;15.98;8.43;;;;;;;6.10;86.09;101009.94;2080013;28;43917;-66
2022/04/25 00:24:09;;;;;;;15.90;8.63;;;;;;;6.10;85.71;101004.59;2079922;28;44334;-69
2022/04/25 00:25:11;;;;;;;14.27;7.75;;;;;;;6.10;86.13;101006.34;2080190;28;44042;-69
2022/04/25 00:26:13;;;;;;;13.30;8.45;;;;;;;6.11;86.33;101013.47;2080136;28;43984;-69
2022/04/25 00:27:14;;;;;;;13.75;8.05;;;;;;;6.10;85.68;101015.25;2080145;28;44492;-69
2022/04/25 00:28:16;;;;;;;21.77;9.15;;;;;;;6.10;86.27;101006.34;2088583;28;20033;-69
2022/04/25 00:29:18;;;;;;;18.35;9.30;;;;;;;6.11;86.72;101002.81;2087526;28;37317;-68
2022/04/25 00:30:20;;;;;;;13.80;7.85;;;;;;;6.13;85.61;101013.47;2080091;28;44318;-69
2022/04/25 00:31:22;;;;;;;14.32;7.95;;;;;;;6.10;85.47;101011.69;2079762;28;44340;-68
2022/04/25 00:32:24;;;;;;;16.23;8.40;;;;;;;6.12;86.11;101015.25;2079776;28;44477;-69
2022/04/25 00:33:26;;;;;;;16.17;8.55;;;;;;;6.13;85.29;101008.13;2079349;28;44099;-69
2022/04/25 00:34:28;;;;;;;15.30;7.95;;;;;;;6.13;84.96;101013.47;2079328;28;45453;-69
2022/04/25 00:35:32;;;;;;;15.52;8.23;;;;;;;6.14;86.14;101012.56;2080258;28;34140;-69
2022/04/25 00:36:34;;;;;;;12.02;7.60;;;;;;;6.14;86.64;101009.88;2079948;28;45524;-69
2022/04/25 00:37:36;;;;;;;17.25;8.43;;;;;;;6.14;86.21;101012.56;2079797;28;43763;-69
2022/04/25 00:38:37;;;;;;;15.40;8.23;;;;;;;6.14;85.43;101012.56;2079686;28;43731;-68
2022/04/25 00:39:39;;;;;;;16.08;8.50;;;;;;;6.15;86.21;101006.34;2078794;28;43987;-68
2022/04/25 00:40:44;;;;;;;16.25;8.70;;;;;;;6.14;86.21;101008.13;2080262;28;29183;-69
2022/04/25 00:41:46;;;;;;;13.35;8.43;;;;;;;6.14;85.93;101001.91;2079352;28;43036;-69
2022/04/25 00:42:48;;;;;;;17.98;8.70;;;;;;;6.15;86.16;101003.69;2079702;28;45651;-69
2022/04/25 00:43:55;;;;;;;17.55;8.73;;;;;;;6.15;86.41;101009.88;2079944;28;32183;-69
2022/04/25 00:44:59;;;;;;;16.92;8.75;;;;;;;6.14;85.21;101005.47;2079576;28;46457;-69
2022/04/25 00:46:02;;;;;;;13.13;8.45;;;;;;;6.16;85.18;101005.47;2079724;28;43137;-69
2022/04/25 00:47:06;;;;;;;16.55;8.85;;;;;;;6.17;86.29;101007.22;2088121;28;20621;-69
2022/04/25 00:48:08;;;;;;;12.80;7.88;;;;;;;6.17;85.13;101009.88;2079166;28;44448;-69
2022/04/25 00:49:09;;;;;;;16.92;8.60;;;;;;;6.16;85.34;101005.47;2078967;28;43101;-68
2022/04/25 00:50:15;;;;;;;16.08;8.20;;;;;;;6.17;85.01;101009.88;2079616;28;43960;-69
2022/04/25 00:51:18;;;;;;;14.60;9.23;;;;;;;6.17;85.79;101008.09;2079587;28;45701;-68
2022/04/25 00:52:20;;;;;;;15.25;8.98;;;;;;;6.17;85.05;101007.22;2079568;28;45322;-69
2022/04/25 00:53:21;;;;;;;13.32;8.65;;;;;;;6.19;85.21;101005.44;2079613;28;46404;-69
2022/04/25 00:54:23;;;;;;;14.70;8.23;;;;;;;6.18;85.95;101001.03;2086851;28;44575;-69
2022/04/25 00:55:28;;;;;;;13.15;8.13;;;;;;;6.18;85.10;101003.69;2087499;28;20037;-68
2022/04/25 00:56:30;;;;;;;14.40;8.05;;;;;;;6.18;85.41;100998.38;2087251;28;44399;-69
2022/04/25 00:57:31;;;;;;;16.23;8.30;;;;;;;6.18;85.11;100993.06;2087016;28;45097;-69
2022/04/25 00:58:34;;;;;;;13.57;8.40;;;;;;;6.18;86.03;100993.94;2079912;28;45125;-69
2022/04/25 00:59:36;;;;;;;15.43;8.77;;;;;;;6.20;85.42;101004.56;2079728;28;40004;-69
2022/04/25 01:00:38;;;;;;;15.27;8.60;;;;;;;6.19;85.01;101000.13;2079378;28;43555;-69
2022/04/25 01:01:40;;;;;;;13.85;8.32;;;;;;;6.20;85.57;100999.25;2079795;28;44966;-69
2022/04/25 01:02:42;;;;;;;12.13;7.85;;;;;;;6.20;86.28;100994.81;2080297;28;20069;-68
2022/04/25 01:03:44;;;;;;;15.73;8.82;;;;;;;6.20;85.66;100997.47;2078977;28;44975;-69
2022/04/25 01:04:45;;;;;;;15.63;8.73;;;;;;;6.21;85.74;100998.34;2070979;28;44778;-69
2022/04/25 01:05:47;;;;;;;15.57;8.63;;;;;;;6.22;85.95;101002.78;2079380;28;31481;-69
2022/04/25 01:06:49;;;;;;;18.40;9.13;;;;;;;6.23;85.70;100999.25;2078992;28;45837;-69
2022/04/25 01:07:50;;;;;;;16.60;8.95;;;;;;;6.23;85.52;100996.59;2079739;28;42769;-69
2022/04/25 01:08:52;;;;;;;16.00;8.88;;;;;;;6.22;85.98;101001.00;2079016;28;46488;-69
2022/04/25 01:09:55;;;;;;;14.32;8.77;;;;;;;6.23;86.14;100999.25;2079453;28;45821;-68
2022/04/25 01:10:57;;;;;;;16.15;8.73;;;;;;;6.22;85.82;101001.00;2079575;28;39989;-69
2022/04/25 01:11:59;;;;;;;14.57;8.35;;;;;;;6.23;85.24;101000.13;2079606;28;45312;-69
2022/04/25 01:13:01;;;;;;;14.85;8.02;;;;;;;6.23;85.94;101005.44;2079113;28;43385;-69
2022/04/25 01:14:18;;;;;;;12.82;8.27;;;;;;;6.24;85.89;101003.66;2079669;28;44281;-68
2022/04/25 01:15:22;;;;;;;15.38;9.00;;;;;;;6.25;86.08;101003.66;2086697;28;45377;-69
2022/04/25 01:16:24;;;;;;;18.00;8.93;;;;;;;6.24;86.03;100998.34;2078539;28;44088;-69
2022/04/25 01:17:26;;;;;;;15.48;8.68;;;;;;;6.25;84.94;100998.34;2078288;28;45483;-69
2022/04/25 01:18:28;;;;;;;15.90;8.70;;;;;;;6.25;86.20;100994.81;2071041;28;43605;-69
2022/04/25 01:19:32;;;;;;;14.98;8.50;;;;;;;6.26;85.99;100996.56;2079586;28;21065;-68
2022/04/25 01:20:34;;;;;;;18.17;8.93;;;;;;;6.26;85.28;100989.50;2079897;28;45459;-69
2022/04/25 01:21:42;;;;;;;16.45;8.38;;;;;;;6.28;85.55;100994.78;2079524;28;43901;-68
2022/04/25 01:22:52;;;;;;;16.27;8.63;;;;;;;6.27;85.85;100985.03;2080346;28;20953;-69
2022/04/25 01:27:55;;;;;;;13.52;8.32;;;;;;;6.29;85.16;100994.78;2074469;28;24603;-69
2022/04/25 01:28:58;;;;;;;14.43;8.45;;;;;;;6.28;85.50;100986.78;2070990;28;44959;-69
2022/04/25 01:30:00;;;;;;;12.90;8.82;;;;;;;6.28;86.00;100994.78;2070717;28;44493;-69
2022/04/25 01:31:01;;;;;;;18.98;8.98;;;;;;;6.29;85.27;100991.22;2071075;28;43939;-69
2022/04/25 01:32:04;;;;;;;16.58;9.15;;;;;;;6.29;85.17;101000.09;2070711;28;44044;-69
2022/04/25 01:33:06;;;;;;;17.08;9.05;;;;;;;6.30;85.83;100993.00;2071341;28;37685;-69
2022/04/25 01:34:10;;;;;;;18.48;9.05;;;;;;;6.30;85.68;100987.69;2071352;28;43503;-70
2022/04/25 01:35:12;;;;;;;16.52;8.32;;;;;;;6.30;85.11;100996.56;2071150;28;44658;-69
2022/04/25 01:36:14;;;;;;;16.33;8.68;;;;;;;6.33;85.62;100986.78;2071180;28;39337;-69
2022/04/25 01:37:20;;;;;;;12.50;9.02;;;;;;;6.33;85.52;100984.13;2071328;28;46625;-69
2022/04/25 01:38:22;;;;;;;19.88;8.02;;;;;;;6.33;85.98;100995.63;2072408;28;20176;-70
2022/04/25 01:39:23;;;;;;;15.00;8.82;;;;;;;6.33;85.87;100987.66;2071525;28;23330;-69
2022/04/25 01:40:25;;;;;;;13.27;7.80;;;;;;;6.33;85.83;100990.31;2071053;28;45781;-69
2022/04/25 01:41:27;;;;;;;14.80;8.27;;;;;;;6.34;85.40;100992.09;2070841;28;42018;-69
2022/04/25 01:42:28;;;;;;;15.73;8.40;;;;;;;6.32;85.68;100996.53;2071151;28;46441;-69
2022/04/25 01:43:36;;;;;;;12.65;8.52;;;;;;;6.33;85.67;100982.34;2070833;28;43321;-69
2022/04/25 01:44:39;;;;;;;13.27;8.27;;;;;;;6.32;85.64;100985.91;2070834;28;43271;-69
2022/04/25 01:45:41;;;;;;;16.77;8.40;;;;;;;6.34;86.01;100985.91;2071158;28;46176;-69
2022/04/25 01:46:43;;;;;;;15.07;8.65;;;;;;;6.34;85.10;100997.41;2071335;28;44099;-69
2022/04/25 01:47:46;;;;;;;11.27;7.95;;;;;;;6.33;85.30;100987.66;2071246;28;43842;-69
2022/04/25 01:48:47;;;;;;;19.15;9.18;;;;;;;6.35;85.71;100991.19;2071318;28;43478;-70
2022/04/25 01:49:49;;;;;;;15.20;8.20;;;;;;;6.35;85.56;100987.66;2070465;28;45239;-68
2022/04/25 01:50:53;;;;;;;15.18;8.70;;;;;;;6.34;85.34;100991.22;2070518;28;45311;-69
2022/04/25 01:51:55;;;;;;;16.70;8.80;;;;;;;6.33;86.00;100990.31;2071158;28;20182;-69
2022/04/25 01:52:57;;;;;;;13.60;8.45;;;;;;;6.34;85.23;100994.75;2063186;28;20816;-69
2022/04/25 01:53:59;;;;;;;13.82;8.35;;;;;;;6.36;85.55;100995.63;2070447;28;44518;-69
2022/04/25 01:55:03;;;;;;;14.95;8.63;;;;;;;6.33;85.84;101000.97;2071613;28;45182;-69
2022/04/25 01:56:04;;;;;;;15.00;8.15;;;;;;;6.33;85.65;100995.63;2071080;28;45047;-69
2022/04/25 01:57:06;;;;;;;16.45;8.05;;;;;;;6.32;85.84;100996.53;2071192;28;42974;-69
2022/04/25 01:58:08;;;;;;;16.90;8.40;;;;;;;6.33;85.00;100987.66;2071197;28;29896;-70
2022/04/25 01:59:09;;;;;;;15.50;7.90;;;;;;;6.33;85.45;100998.28;2070280;28;43608;-70
2022/04/25 02:00:12;;;;;;;16.25;8.23;;;;;;;6.33;85.93;100997.41;2071217;28;45148;-70
2022/04/25 02:01:13;;;;;;;13.30;8.27;;;;;;;6.33;85.89;100995.63;2071832;28;20157;-69
2022/04/25 02:02:15;;;;;;;15.50;8.23;;;;;;;6.33;85.39;100992.97;2071051;28;43310;-69
2022/04/25 02:03:17;;;;;;;13.35;8.07;;;;;;;6.33;85.60;100997.41;2070991;28;45924;-69
2022/04/25 02:04:21;;;;;;;15.77;8.45;;;;;;;6.34;85.24;100997.41;2062278;28;45794;-70
2022/04/25 02:05:23;;;;;;;13.82;8.13;;;;;;;6.34;85.76;100989.44;2062734;28;44146;-68
2022/04/25 02:06:25;;;;;;;16.95;7.65;;;;;;;6.34;85.46;100985.91;2076446;28;46420;-70
2022/04/25 02:07:27;;;;;;;13.50;7.68;;;;;;;6.35;85.73;100990.31;2079310;28;43509;-70
2022/04/25 02:08:28;;;;;;;14.60;8.23;;;;;;;6.35;86.09;100991.19;2079605;28;22090;-70
2022/04/25 02:09:32;;;;;;;11.20;7.80;;;;;;;6.34;85.40;100989.44;2080135;28;20038;-70
2022/04/25 02:10:34;;;;;;;13.63;8.30;;;;;;;6.37;86.47;100988.53;2078522;28;44120;-69
2022/04/25 02:11:36;;;;;;;14.80;8.00;;;;;;;6.35;85.86;100991.19;2078716;28;45074;-70
2022/04/25 02:12:37;;;;;;;14.20;8.23;;;;;;;6.34;85.83;100997.41;2079205;28;44745;-69
2022/04/25 02:13:39;;;;;;;17.02;8.05;;;;;;;6.33;85.26;100990.31;2079242;28;44928;-69
2022/04/25 02:14:42;;;;;;;16.48;7.95;;;;;;;6.33;85.67;100995.63;2079911;28;38212;-70
2022/04/25 02:15:44;;;;;;;13.50;7.70;;;;;;;6.33;85.45;100989.44;2078688;28;44094;-69
2022/04/25 02:16:46;;;;;;;17.55;7.82;;;;;;;6.34;86.45;100994.75;2078679;28;46378;-70
2022/04/25 02:17:48;;;;;;;11.82;7.72;;;;;;;6.34;86.39;101000.06;2079727;28;22541;-70
2022/04/25 02:18:53;;;;;;;14.88;7.80;;;;;;;6.34;85.68;100991.22;2078891;28;45082;-70
2022/04/25 02:19:55;;;;;;;14.43;7.82;;;;;;;6.35;86.39;100998.28;2078608;28;45151;-70
2022/04/25 02:20:57;;;;;;;15.48;7.80;;;;;;;6.33;86.04;100992.97;2078520;28;42142;-70
2022/04/25 02:21:58;;;;;;;17.92;7.97;;;;;;;6.34;86.01;100984.13;2077733;28;44610;-70
2022/04/25 02:23:00;;;;;;;15.18;7.93;;;;;;;6.34;86.44;100994.75;2078746;28;46047;-70
2022/04/25 02:24:02;;;;;;;16.80;8.63;;;;;;;6.34;86.24;100992.09;2079271;28;41531;-70
2022/04/25 02:25:06;;;;;;;16.33;8.23;;;;;;;6.35;85.28;100987.66;2079123;28;46490;-70
2022/04/25 02:26:10;;;;;;;17.95;8.52;;;;;;;6.34;85.83;100989.44;2079478;28;28359;-70
2022/04/25 02:27:12;;;;;;;13.32;7.75;;;;;;;6.34;85.82;100993.88;2086579;28;43897;-70
2022/04/25 02:28:14;;;;;;;14.60;7.93;;;;;;;6.36;86.19;101005.41;2085157;28;44303;-70
2022/04/25 02:29:16;;;;;;;15.88;8.20;;;;;;;6.35;85.63;100992.97;2079846;28;20030;-70
2022/04/25 02:30:18;;;;;;;14.20;7.93;;;;;;;6.35;85.85;100996.50;2086785;28;46392;-70
2022/04/25 02:31:19;;;;;;;15.23;7.95;;;;;;;6.36;86.39;101000.06;2086122;28;46027;-70
2022/04/25 02:32:21;;;;;;;14.27;7.88;;;;;;;6.35;85.40;101006.28;2079107;28;44159;-70
2022/04/25 02:33:23;;;;;;;17.85;7.95;;;;;;;6.36;86.15;101003.59;2079209;28;45799;-70
2022/04/25 02:34:25;;;;;;;9.93;6.78;;;;;;;6.37;85.92;101009.81;2079585;28;32920;-70
2022/04/25 02:35:28;;;;;;;15.65;8.02;;;;;;;6.36;85.92;101003.59;2077967;28;45187;-70
2022/04/25 02:36:29;;;;;;;16.63;8.20;;;;;;;6.37;86.15;100997.41;2069958;28;44743;-70
2022/04/25 02:37:31;;;;;;;11.70;7.82;;;;;;;6.37;85.92;100997.41;2071424;28;20921;-70
2022/04/25 02:38:35;;;;;;;11.27;7.72;;;;;;;6.38;86.00;101003.59;2070311;28;45608;-70
2022/04/25 02:39:36;;;;;;;15.38;8.18;;;;;;;6.36;86.03;101003.59;2078899;28;45282;-70
2022/04/25 02:40:38;;;;;;;13.95;7.70;;;;;;;6.38;85.49;101007.13;2078992;28;45226;-70
2022/04/25 02:41:42;;;;;;;12.93;7.50;;;;;;;6.38;85.49;101011.59;2078363;28;45825;-70
2022/04/25 02:42:43;;;;;;;15.73;8.07;;;;;;;6.36;86.38;101010.72;2079143;28;39646;-70
2022/04/25 02:43:45;;;;;;;14.77;8.00;;;;;;;6.36;86.17;101006.28;2079346;28;44912;-70
2022/04/25 02:44:48;;;;;;;16.60;7.53;;;;;;;6.37;85.74;101010.72;2079044;28;44323;-70
2022/04/25 02:45:50;;;;;;;14.45;7.40;;;;;;;6.36;85.79;101008.94;2079035;28;44423;-70
2022/04/25 02:46:51;;;;;;;14.43;8.70;;;;;;;6.36;85.99;101008.06;2078945;28;44270;-70
2022/04/25 02:47:53;;;;;;;16.02;8.77;;;;;;;6.35;85.65;101006.28;2078354;28;31988;-70
2022/04/25 02:48:59;;;;;;;12.55;8.88;;;;;;;6.36;85.27;101008.06;2078105;28;45980;-70
2022/04/25 02:50:01;;;;;;;12.85;8.60;;;;;;;6.36;86.00;101006.28;2078986;28;44500;-70
2022/04/25 02:51:07;;;;;;;15.60;8.70;;;;;;;6.37;85.68;101007.16;2079079;28;44277;-70
2022/04/25 02:52:08;;;;;;;13.65;8.52;;;;;;;6.36;86.07;101000.94;2086595;28;45653;-71
2022/04/25 02:53:10;;;;;;;20.05;9.45;;;;;;;6.37;85.48;100997.41;2086832;28;20040;-70
2022/04/25 02:54:12;;;;;;;15.25;9.38;;;;;;;6.38;85.59;101011.59;2079185;28;39590;-71
2022/04/25 02:55:14;;;;;;;15.73;9.80;;;;;;;6.37;85.89;101004.47;2079067;28;42002;-70
2022/04/25 02:56:15;;;;;;;13.85;9.82;;;;;;;6.36;85.26;101003.59;2078657;28;45440;-71
2022/04/25 02:57:19;;;;;;;16.02;10.55;;;;;;;6.38;84.72;101007.13;2079676;28;20061;-70
2022/04/25 02:58:22;;;;;;;14.25;9.95;;;;;;;6.36;85.76;101003.59;2078766;28;45270;-70
2022/04/25 02:59:23;;;;;;;16.95;10.25;;;;;;;6.36;84.75;101008.94;2078668;28;45339;-71
2022/04/25 03:00:25;;;;;;;13.95;9.38;;;;;;;6.38;85.41;101004.47;2079317;28;43233;-71
2022/04/25 03:01:27;;;;;;;15.52;9.70;;;;;;;6.39;85.44;101011.59;2079330;28;33804;-70
2022/04/25 03:02:28;;;;;;;16.38;11.13;;;;;;;6.38;85.05;101006.25;2079370;28;45091;-71
2022/04/25 03:03:33;;;;;;;14.18;11.40;;;;;;;6.37;84.85;101010.72;2080565;28;44473;-70
2022/04/25 03:04:35;;;;;;;16.20;11.88;;;;;;;6.39;84.80;101008.94;2080250;28;44294;-71
2022/04/25 03:05:37;;;;;;;21.40;12.32;;;;;;;6.39;84.22;101008.94;2080212;28;36781;-71
2022/04/25 03:06:38;;;;;;;17.95;12.52;;;;;;;6.39;84.54;101014.25;2080640;28;42877;-70
2022/04/25 03:07:40;;;;;;;16.48;12.38;;;;;;;6.39;84.38;101011.59;2080574;28;46211;-70
2022/04/25 03:08:42;;;;;;;19.63;12.13;;;;;;;6.38;84.16;101012.47;2080808;28;27111;-71
2022/04/25 03:09:43;;;;;;;22.58;12.15;;;;;;;6.39;84.51;101005.34;2079391;28;44207;-70
2022/04/25 03:10:47;;;;;;;20.08;12.90;;;;;;;6.39;84.11;101002.69;2080401;28;39487;-71
2022/04/25 03:11:50;;;;;;;19.50;12.48;;;;;;;6.39;84.43;101000.03;2079350;28;41128;-70
2022/04/25 03:12:52;;;;;;;20.17;13.40;;;;;;;6.39;84.10;101008.94;2073238;28;20996;-70
2022/04/25 03:13:53;;;;;;;19.73;12.98;;;;;;;6.37;84.21;101008.06;2079254;28;44193;-71
2022/04/25 03:14:55;;;;;;;17.98;13.40;;;;;;;6.38;83.37;101004.47;2079779;28;44769;-71
2022/04/25 03:15:57;;;;;;;19.08;13.80;;;;;;;6.39;83.33;100997.38;2080292;28;43476;-71
2022/04/25 03:16:58;;;;;;;18.23;13.50;;;;;;;6.39;83.44;100995.63;2080331;28;44306;-70
2022/04/25 03:18:03;;;;;;;17.52;13.30;;;;;;;6.38;84.22;100993.84;2080934;28;30852;-71
2022/04/25 03:19:05;;;;;;;21.52;13.43;;;;;;;6.39;83.11;101003.59;2079792;28;44905;-71
2022/04/25 03:20:07;;;;;;;22.15;13.73;;;;;;;6.40;84.09;100994.72;2080422;28;44279;-71
2022/04/25 03:21:09;;;;;;;18.83;13.82;;;;;;;6.39;83.54;100998.28;2081166;28;24454;-71
2022/04/25 03:22:10;;;;;;;18.77;13.38;;;;;;;6.39;83.93;100997.38;2080063;28;45494;-71
2022/04/25 03:23:20;;;;;;;20.00;13.90;;;;;;;6.38;83.82;100985.88;2081412;28;20834;-70
2022/04/25 03:24:22;;;;;;;24.02;13.27;;;;;;;6.39;84.29;101000.03;2080603;28;43002;-71
2022/04/25 03:25:24;;;;;;;19.35;13.73;;;;;;;6.40;84.57;100999.16;2080216;28;43920;-69
2022/04/25 03:26:25;;;;;;;20.00;14.18;;;;;;;6.39;83.73;100998.28;2081032;28;20897;-71
2022/04/25 03:27:27;;;;;;;17.60;12.65;;;;;;;6.40;83.84;100993.84;2080342;28;42422;-71
2022/04/25 03:28:29;;;;;;;19.70;14.15;;;;;;;6.39;84.24;100998.28;2081047;28;20045;-71
2022/04/25 03:29:31;;;;;;;18.67;13.13;;;;;;;6.38;83.69;100993.84;2080356;28;44359;-71
2022/04/25 03:30:33;;;;;;;20.23;13.30;;;;;;;6.39;84.22;100990.31;2079954;28;44121;-71
2022/04/25 03:31:34;;;;;;;18.30;13.00;;;;;;;6.37;83.81;101001.81;2079974;28;33205;-70
2022/04/25 03:32:36;;;;;;;17.10;13.15;;;;;;;6.38;83.78;100992.97;2079959;28;45024;-71
2022/04/25 03:33:41;;;;;;;22.15;13.80;;;;;;;6.38;83.27;100995.63;2081264;28;20038;-71
2022/04/25 03:34:42;;;;;;;20.52;13.70;;;;;;;6.37;84.31;100994.75;2080489;28;32219;-71
2022/04/25 03:35:46;;;;;;;18.55;13.10;;;;;;;6.36;83.21;100987.66;2080126;28;43766;-70
2022/04/25 03:36:54;;;;;;;21.13;12.75;;;;;;;6.36;83.88;100992.97;2080091;28;45095;-71
2022/04/25 03:37:58;;;;;;;19.02;12.48;;;;;;;6.37;83.06;100988.53;2080447;28;44863;-71
2022/04/25 03:38:59;;;;;;;19.30;13.00;;;;;;;6.36;83.14;100992.97;2079922;28;44843;-71
2022/04/25 03:40:01;;;;;;;18.30;12.45;;;;;;;6.37;83.75;100989.44;2080301;28;33722;-70
2022/04/25 03:41:05;;;;;;;17.17;12.57;;;;;;;6.35;83.50;100993.84;2079582;28;45143;-71
2022/04/25 03:42:06;;;;;;;16.35;12.45;;;;;;;6.35;83.56;101001.81;2080143;28;44784;-72
2022/04/25 03:43:08;;;;;;;19.40;12.88;;;;;;;6.36;83.12;101000.94;2078883;28;42111;-71
2022/04/25 03:44:10;;;;;;;18.25;12.48;;;;;;;6.36;82.98;101000.06;2079019;28;45200;-71
2022/04/25 03:45:16;;;;;;;18.42;12.77;;;;;;;6.35;83.96;100999.16;2079877;28;44340;-71
2022/04/25 03:46:17;;;;;;;18.77;12.32;;;;;;;6.35;83.30;100992.97;2080579;28;44487;-71
2022/04/25 03:47:19;;;;;;;19.75;12.70;;;;;;;6.36;83.38;100998.28;2079935;28;44285;-71
2022/04/25 03:48:21;;;;;;;15.25;12.65;;;;;;;6.35;83.42;100993.84;2078937;28;43760;-71
2022/04/25 03:49:22;;;;;;;24.25;12.88;;;;;;;6.36;83.26;101000.94;2079349;28;44118;-71
2022/04/25 03:50:24;;;;;;;16.75;12.57;;;;;;;6.35;83.82;101009.81;2079213;28;46208;-71
2022/04/25 03:51:26;;;;;;;16.92;12.07;;;;;;;6.35;83.33;101004.50;2080329;28;37870;-70
2022/04/25 03:52:29;;;;;;;20.15;12.32;;;;;;;6.35;83.67;101001.81;2080233;28;45521;-71
2022/04/25 03:53:31;;;;;;;22.30;13.00;;;;;;;6.35;82.91;101001.81;2079403;28;45847;-71
2022/04/25 03:57:14;;;;;;;17.95;12.45;;;;;;;6.34;83.58;100999.19;2079524;28;44590;-71
2022/04/25 03:58:16;;;;;;;18.50;13.05;;;;;;;6.33;83.54;100998.28;2080627;28;20080;-72
2022/04/25 03:59:18;;;;;;;21.13;13.63;;;;;;;6.33;82.91;101003.63;2079327;28;43445;-71
2022/04/25 04:00:21;;;;;;;20.70;13.73;;;;;;;6.32;83.74;100999.22;2079231;28;45211;-72
2022/04/25 04:01:23;;;;;;;19.52;13.50;;;;;;;6.35;84.01;100999.16;2079219;28;44761;-71
2022/04/25 04:02:24;;;;;;;18.33;11.60;;;;;;;6.35;84.08;100990.31;2080872;28;20034;-71
2022/04/25 04:03:26;;;;;;;19.92;12.98;;;;;;;6.35;83.72;101000.94;2079632;28;44232;-72
2022/04/25 04:04:29;;;;;;;17.23;13.82;;;;;;;6.34;84.19;101005.41;2079932;28;46289;-71
2022/04/25 04:05:32;;;;;;;17.60;13.07;;;;;;;6.33;84.38;101000.97;2079950;28;45425;-72
2022/04/25 04:06:35;;;;;;;17.83;12.25;;;;;;;6.34;83.73;101009.84;2079324;28;43729;-70
2022/04/25 04:07:37;;;;;;;16.30;11.82;;;;;;;6.33;84.03;101014.25;2079657;28;42810;-72
2022/04/25 04:08:38;;;;;;;14.98;11.80;;;;;;;6.34;83.85;101009.84;2080793;28;32501;-71
2022/04/25 04:09:46;;;;;;;15.73;11.27;;;;;;;6.33;83.99;101008.06;2079973;28;44224;-71
2022/04/25 04:10:47;;;;;;;16.00;11.35;;;;;;;6.31;84.83;101010.72;2080062;28;44297;-71
2022/04/25 04:11:49;;;;;;;17.48;12.43;;;;;;;6.32;85.32;101007.19;2079783;28;45747;-72
2022/04/25 04:12:51;;;;;;;16.17;11.70;;;;;;;6.31;84.79;101000.09;2076409;28;43496;-72
2022/04/25 04:13:55;;;;;;;16.70;11.52;;;;;;;6.31;84.47;101011.59;2078286;28;32693;-71
2022/04/25 04:15:02;;;;;;;16.75;11.77;;;;;;;6.30;84.06;101004.53;2078761;28;46330;-71
2022/04/25 04:16:04;;;;;;;15.95;11.00;;;;;;;6.28;84.12;101005.41;2080257;28;30746;-72
2022/04/25 04:17:07;;;;;;;17.77;11.13;;;;;;;6.27;84.86;101003.66;2080154;28;45761;-72
2022/04/25 04:18:09;;;;;;;15.10;10.50;;;;;;;6.27;84.10;101007.19;2079761;28;46096;-72
2022/04/25 04:19:10;;;;;;;14.10;10.52;;;;;;;6.28;84.95;101016.94;2079009;28;34009;-72
2022/04/25 04:20:13;;;;;;;17.02;11.07;;;;;;;6.25;84.29;101010.75;2078757;28;44796;-71
2022/04/25 04:21:14;;;;;;;14.35;10.55;;;;;;;6.27;85.14;101012.50;2080016;28;43387;-72
2022/04/25 04:22:16;;;;;;;14.70;10.52;;;;;;;6.26;85.36;101015.16;2079903;28;44699;-72
2022/04/25 04:23:18;;;;;;;14.38;11.00;;;;;;;6.25;84.10;101013.41;2079787;28;44271;-73
2022/04/25 04:24:23;;;;;;;16.38;9.45;;;;;;;6.24;83.81;101020.47;2079466;28;43763;-72
2022/04/25 04:25:24;;;;;;;14.45;9.57;;;;;;;6.21;83.48;101022.28;2079603;28;44948;-73
2022/04/25 04:26:28;;;;;;;16.30;9.32;;;;;;;6.19;84.24;101017.00;2080499;28;20037;-73
2022/04/25 04:27:31;;;;;;;16.17;9.52;;;;;;;6.21;83.95;101014.28;2079773;28;44076;-72
2022/04/25 04:28:33;;;;;;;13.20;9.10;;;;;;;6.20;84.47;101020.53;2079265;28;45987;-72
2022/04/25 04:29:35;;;;;;;15.10;9.73;;;;;;;6.20;84.24;101012.53;2079058;28;44234;-73
2022/04/25 04:30:36;;;;;;;15.27;9.68;;;;;;;6.19;84.11;101008.09;2078895;28;43847;-72
2022/04/25 04:31:38;;;;;;;15.55;10.20;;;;;;;6.18;83.82;101007.22;2080247;28;43743;-73
2022/04/25 04:32:41;;;;;;;15.85;9.65;;;;;;;6.17;83.95;101005.44;2078428;28;43909;-72
2022/04/25 04:33:43;;;;;;;13.82;8.93;;;;;;;6.16;83.65;101016.13;2079310;28;45175;-72
2022/04/25 04:34:45;;;;;;;14.82;10.10;;;;;;;6.15;83.98;101017.00;2079668;28;35241;-72
2022/04/25 04:37:07;;;;;;;15.38;9.98;;;;;;;6.13;84.13;101017.00;2079990;28;45741;-73
2022/04/25 04:38:09;;;;;;;14.23;9.38;;;;;;;6.11;84.60;101014.34;2080413;28;33568;-72
2022/04/25 04:39:11;;;;;;;15.43;9.85;;;;;;;6.10;83.99;101017.91;2079387;28;44898;-72
2022/04/25 04:40:31;;;;;;;20.17;10.13;;;;;;;6.09;84.60;101009.94;2080453;28;27938;-71
2022/04/25 04:41:32;;;;;;;15.77;10.63;;;;;;;6.09;84.10;101018.78;2079688;28;45267;-71
2022/04/25 04:42:35;;;;;;;18.23;9.90;;;;;;;6.08;84.71;101025.00;2079772;28;44736;-71
2022/04/25 04:43:38;;;;;;;16.70;11.23;;;;;;;6.08;83.86;101019.69;2079514;28;42931;-70
2022/04/25 04:44:42;;;;;;;16.45;9.68;;;;;;;6.09;84.06;101017.91;2079838;28;42104;-72
2022/04/25 04:45:44;;;;;;;14.82;9.63;;;;;;;6.08;84.02;101021.44;2079959;28;44237;-72
2022/04/25 04:46:49;;;;;;;15.32;9.70;;;;;;;6.09;84.02;101023.22;2087323;28;44581;-72
2022/04/25 04:47:52;;;;;;;16.02;10.40;;;;;;;6.09;84.83;101021.44;2087539;28;20049;-71
2022/04/25 04:48:54;;;;;;;16.13;10.63;;;;;;;6.09;84.10;101032.06;2079694;28;45247;-72
2022/04/25 04:49:55;;;;;;;16.67;10.80;;;;;;;6.10;84.28;101028.53;2079668;28;43836;-73
2022/04/25 04:50:58;;;;;;;15.38;10.88;;;;;;;6.11;84.86;101034.72;2080509;28;20038;-72
2022/04/25 04:51:59;;;;;;;15.85;11.00;;;;;;;6.11;83.98;101035.59;2079174;28;44278;-73
2022/04/25 04:53:01;;;;;;;15.63;10.23;;;;;;;6.11;83.97;101040.03;2079490;28;44477;-73
2022/04/25 04:54:03;;;;;;;16.55;10.90;;;;;;;6.12;84.41;101039.16;2080118;28;42118;-72
2022/04/25 04:55:05;;;;;;;17.23;10.95;;;;;;;6.14;84.95;101041.78;2079996;28;38082;-73
2022/04/25 04:56:07;;;;;;;18.50;10.00;;;;;;;6.13;83.83;101037.38;2081026;28;20157;-73
2022/04/25 04:57:13;;;;;;;16.02;10.43;;;;;;;6.10;84.30;101049.81;2079647;28;45807;-73